createdAt,value
2017-10-04T00:00:42.340Z,2.00
2017-10-04T00:03:11.208Z,2.57
2017-10-04T00:05:40.068Z,1.93
2017-10-04T00:08:08.965Z,2.93
2017-10-04T00:10:37.825Z,2.40
2017-10-04T00:13:06.705Z,2.50
2017-10-04T00:15:35.584Z,2.90
2017-10-04T00:18:04.444Z,2.33
2017-10-04T00:20:33.317Z,2.63
2017-10-04T00:23:02.184Z,2.73
2017-10-04T00:25:31.056Z,2.53
2017-10-04T00:27:59.913Z,3.07
2017-10-04T00:30:28.800Z,2.73
2017-10-04T00:32:57.660Z,2.00
2017-10-04T00:35:26.540Z,2.83
2017-10-04T00:37:55.404Z,2.80
2017-10-04T00:40:24.281Z,2.40
2017-10-04T00:42:53.152Z,2.60
2017-10-04T00:45:22.032Z,3.40
2017-10-04T00:47:50.887Z,2.67
2017-10-04T00:50:19.743Z,2.60
2017-10-04T00:52:48.628Z,2.57
2017-10-04T00:55:17.492Z,2.23
2017-10-04T00:57:46.368Z,2.30
2017-10-04T01:00:15.224Z,2.37
2017-10-04T01:02:44.101Z,1.67
2017-10-04T01:05:12.960Z,2.67
2017-10-04T01:07:41.832Z,2.30
2017-10-04T01:10:10.703Z,1.77
2017-10-04T01:12:39.583Z,2.83
2017-10-04T01:15:08.448Z,2.97
2017-10-04T01:17:37.332Z,2.37
2017-10-04T01:20:06.204Z,2.30
2017-10-04T01:22:35.080Z,1.97
2017-10-04T01:25:03.938Z,2.33
2017-10-04T01:27:32.844Z,2.80
2017-10-04T01:30:01.701Z,2.30
2017-10-04T01:32:30.559Z,3.23
2017-10-04T01:34:59.437Z,2.97
2017-10-04T01:37:28.295Z,2.27
2017-10-04T01:39:57.724Z,2.87
2017-10-04T01:42:26.591Z,2.77
2017-10-04T01:44:55.488Z,3.20
2017-10-04T01:47:24.352Z,2.53
2017-10-04T01:49:53.228Z,2.97
2017-10-04T01:52:22.089Z,3.63
2017-10-04T01:54:50.962Z,2.83
2017-10-04T01:57:19.836Z,4.63
2017-10-04T01:59:48.723Z,2.60
2017-10-04T02:02:17.579Z,3.37
2017-10-04T02:04:46.448Z,2.60
2017-10-04T02:07:15.309Z,2.87
2017-10-04T02:09:44.198Z,3.03
2017-10-04T02:12:13.052Z,2.67
2017-10-04T02:14:41.948Z,2.60
2017-10-04T02:17:10.800Z,3.13
2017-10-04T02:19:39.673Z,2.87
2017-10-04T02:22:08.543Z,3.50
2017-10-04T02:24:37.433Z,3.93
2017-10-04T02:27:06.308Z,3.13
2017-10-04T02:29:35.169Z,3.20
2017-10-04T02:32:04.057Z,3.23
2017-10-04T02:34:32.920Z,3.87
2017-10-04T02:37:01.799Z,3.40
2017-10-04T02:39:30.677Z,3.30
2017-10-04T02:41:59.548Z,2.93
2017-10-04T02:44:28.400Z,3.40
2017-10-04T02:46:57.376Z,3.20
2017-10-04T02:49:26.240Z,2.83
2017-10-04T02:51:55.115Z,4.17
2017-10-04T02:54:23.979Z,3.40
2017-10-04T02:56:52.856Z,3.90
2017-10-04T02:59:21.712Z,3.57
2017-10-04T03:01:50.596Z,3.50
2017-10-04T03:04:19.465Z,3.73
2017-10-04T03:06:48.344Z,3.50
2017-10-04T03:09:17.280Z,3.67
2017-10-04T03:11:46.156Z,3.13
2017-10-04T03:14:15.008Z,3.67
2017-10-04T03:16:43.867Z,3.50
2017-10-04T03:19:12.735Z,3.50
2017-10-04T03:21:41.600Z,4.93
2017-10-04T03:24:10.468Z,3.90
2017-10-04T03:26:39.341Z,3.53
2017-10-04T03:29:08.213Z,3.53
2017-10-04T03:31:37.080Z,3.80
2017-10-04T03:34:05.957Z,3.23
2017-10-04T03:36:34.824Z,4.70
2017-10-04T03:39:03.717Z,3.27
2017-10-04T03:41:32.693Z,4.40
2017-10-04T03:44:01.566Z,6.67
2017-10-04T03:46:30.419Z,3.53
2017-10-04T03:48:59.295Z,3.37
2017-10-04T03:51:28.148Z,3.90
2017-10-04T03:53:57.044Z,4.43
2017-10-04T03:56:25.912Z,3.80
2017-10-04T03:58:54.771Z,4.63
2017-10-04T04:01:23.656Z,4.67
2017-10-04T04:03:52.512Z,4.00
2017-10-04T04:06:21.392Z,3.60
2017-10-04T04:08:50.284Z,4.10
2017-10-04T04:11:19.164Z,3.93
2017-10-04T04:13:48.015Z,4.80
2017-10-04T04:16:16.904Z,3.20
2017-10-04T04:18:45.784Z,3.93
2017-10-04T04:21:14.656Z,3.60
2017-10-04T04:23:43.525Z,3.77
2017-10-04T04:26:12.402Z,4.30
2017-10-04T04:28:41.264Z,5.03
2017-10-04T04:31:10.152Z,3.97
2017-10-04T04:33:39.019Z,3.83
2017-10-04T04:36:07.916Z,3.53
2017-10-04T04:38:42.544Z,4.27
2017-10-04T04:41:11.473Z,3.77
2017-10-04T04:43:40.360Z,4.20
2017-10-04T04:46:09.227Z,4.27
2017-10-04T04:48:38.109Z,4.73
2017-10-04T04:51:06.967Z,4.70
2017-10-04T04:53:35.843Z,4.23
2017-10-04T04:56:04.695Z,3.43
2017-10-04T04:58:33.564Z,3.90
2017-10-04T05:01:02.422Z,4.60
2017-10-04T05:03:31.299Z,5.83
2017-10-04T05:06:00.157Z,4.70
2017-10-04T05:08:29.019Z,3.80
2017-10-04T05:10:57.886Z,4.50
2017-10-04T05:13:26.768Z,5.13
2017-10-04T05:15:55.652Z,4.93
2017-10-04T05:18:24.550Z,3.93
2017-10-04T05:20:53.399Z,4.43
2017-10-04T05:23:22.268Z,3.93
2017-10-04T05:25:51.140Z,5.10
2017-10-04T05:28:20.012Z,5.03
2017-10-04T05:30:48.887Z,4.37
2017-10-04T05:33:17.748Z,4.43
2017-10-04T05:35:46.808Z,4.90
2017-10-04T05:38:15.673Z,4.90
2017-10-04T05:40:44.549Z,4.20
2017-10-04T05:43:13.417Z,4.73
2017-10-04T05:45:42.288Z,5.00
2017-10-04T05:48:11.181Z,4.13
2017-10-04T05:50:40.065Z,4.70
2017-10-04T05:53:08.924Z,4.77
2017-10-04T05:55:37.801Z,4.47
2017-10-04T05:58:06.660Z,5.20
2017-10-04T06:00:35.539Z,5.07
2017-10-04T06:03:04.388Z,4.33
2017-10-04T06:05:33.248Z,4.73
2017-10-04T06:08:02.126Z,4.50
2017-10-04T06:10:30.979Z,4.57
2017-10-04T06:12:59.851Z,6.07
2017-10-04T06:15:28.712Z,4.70
2017-10-04T06:17:57.607Z,4.87
2017-10-04T06:20:26.477Z,3.80
2017-10-04T06:22:55.355Z,5.50
2017-10-04T06:25:24.237Z,3.97
2017-10-04T06:27:53.120Z,5.23
2017-10-04T06:30:21.989Z,4.20
2017-10-04T06:32:50.870Z,4.63
2017-10-04T06:35:19.733Z,5.10
2017-10-04T06:37:48.644Z,4.43
2017-10-04T06:40:17.587Z,4.20
2017-10-04T06:42:46.463Z,4.70
2017-10-04T06:45:15.440Z,3.83
2017-10-04T06:47:44.308Z,4.60
2017-10-04T06:50:13.176Z,4.77
2017-10-04T06:52:42.028Z,4.47
2017-10-04T06:55:11.008Z,4.07
2017-10-04T06:57:39.869Z,4.43
2017-10-04T07:00:08.760Z,4.13
2017-10-04T07:02:37.615Z,3.93
2017-10-04T07:05:06.490Z,3.50
2017-10-04T07:07:35.347Z,3.47
2017-10-04T07:10:04.232Z,4.70
2017-10-04T07:12:33.093Z,4.33
2017-10-04T07:15:01.970Z,4.00
2017-10-04T07:17:30.832Z,4.77
2017-10-04T07:19:59.705Z,4.27
2017-10-04T07:22:28.560Z,4.10
2017-10-04T07:24:57.492Z,3.73
2017-10-04T07:27:26.372Z,5.00
2017-10-04T07:29:55.230Z,4.83
2017-10-04T07:32:24.100Z,4.20
2017-10-04T07:34:52.951Z,4.33
2017-10-04T07:37:21.823Z,4.00
2017-10-04T07:39:50.700Z,4.57
2017-10-04T07:42:19.584Z,4.43
2017-10-04T07:44:48.432Z,4.30
2017-10-04T07:47:17.316Z,4.10
2017-10-04T07:49:46.182Z,3.70
2017-10-04T07:52:15.064Z,3.57
2017-10-04T07:54:43.925Z,3.17
2017-10-04T07:57:12.802Z,3.80
2017-10-04T07:59:41.692Z,3.83
2017-10-04T08:02:10.548Z,3.07
2017-10-04T08:04:39.424Z,4.27
2017-10-04T08:07:08.284Z,3.20
2017-10-04T08:09:37.160Z,3.90
2017-10-04T08:12:06.022Z,2.80
2017-10-04T08:14:34.900Z,4.00
2017-10-04T08:17:03.760Z,3.60
2017-10-04T08:19:32.649Z,3.13
2017-10-04T08:22:01.517Z,3.67
2017-10-04T08:24:30.389Z,3.90
2017-10-04T08:26:59.256Z,4.00
2017-10-04T08:29:28.137Z,2.80
2017-10-04T08:31:57.000Z,3.57
2017-10-04T08:34:25.879Z,3.60
2017-10-04T08:36:54.740Z,4.03
2017-10-04T08:39:23.628Z,3.50
2017-10-04T08:41:52.485Z,4.00
2017-10-04T08:44:21.344Z,3.60
2017-10-04T08:46:50.223Z,3.03
2017-10-04T08:49:19.098Z,3.43
2017-10-04T08:51:47.970Z,2.93
2017-10-04T08:54:16.832Z,3.50
2017-10-04T08:56:45.714Z,3.03
2017-10-04T08:59:14.575Z,3.33
2017-10-04T09:01:43.458Z,3.03
2017-10-04T09:04:18.280Z,3.17
2017-10-04T09:06:47.168Z,3.13
2017-10-04T09:09:16.040Z,3.23
2017-10-04T09:11:44.903Z,3.10
2017-10-04T09:14:13.760Z,2.93
2017-10-04T09:16:42.636Z,2.83
2017-10-04T09:19:11.508Z,3.57
2017-10-04T09:21:40.397Z,3.57
2017-10-04T09:24:09.261Z,3.10
2017-10-04T09:26:38.117Z,2.87
2017-10-04T09:29:06.993Z,3.40
2017-10-04T09:31:35.862Z,3.03
2017-10-04T09:34:04.813Z,3.13
2017-10-04T09:36:33.676Z,3.30
2017-10-04T09:39:02.544Z,3.30
2017-10-04T09:41:31.401Z,4.30
2017-10-04T09:44:00.280Z,3.70
2017-10-04T09:46:29.135Z,3.70
2017-10-04T09:48:58.038Z,3.07
2017-10-04T09:51:26.896Z,2.90
2017-10-04T09:53:55.771Z,3.03
2017-10-04T09:56:24.672Z,4.23
2017-10-04T09:58:53.539Z,3.97
2017-10-04T10:01:22.392Z,3.50
2017-10-04T10:03:51.269Z,2.73
2017-10-04T10:06:20.138Z,3.90
2017-10-04T10:08:49.043Z,3.63
2017-10-04T10:11:17.924Z,3.50
2017-10-04T10:13:46.796Z,3.83
2017-10-04T10:16:15.746Z,3.57
2017-10-04T10:18:44.599Z,2.77
2017-10-04T10:21:13.477Z,3.97
2017-10-04T10:23:42.333Z,3.53
2017-10-04T10:26:11.289Z,3.33
2017-10-04T10:28:40.147Z,4.53
2017-10-04T10:31:09.028Z,3.60
2017-10-04T10:33:37.891Z,4.73
2017-10-04T10:36:06.778Z,3.70
2017-10-04T10:38:35.649Z,3.10
2017-10-04T10:41:04.525Z,3.40
2017-10-04T10:43:33.399Z,3.80
2017-10-04T10:46:02.272Z,4.17
2017-10-04T10:48:31.137Z,2.70
2017-10-04T10:51:00.004Z,3.67
2017-10-04T10:53:28.876Z,3.37
2017-10-04T10:55:57.728Z,3.57
2017-10-04T10:58:26.616Z,3.20
2017-10-04T11:00:55.481Z,4.43
2017-10-04T11:03:24.361Z,3.60
2017-10-04T11:05:53.277Z,4.10
2017-10-04T11:08:22.157Z,3.47
2017-10-04T11:10:51.013Z,3.63
2017-10-04T11:13:19.952Z,3.30
2017-10-04T11:15:48.820Z,4.30
2017-10-04T11:18:17.716Z,3.53
2017-10-04T11:20:46.580Z,3.63
2017-10-04T11:23:15.461Z,3.70
2017-10-04T11:25:44.329Z,3.87
2017-10-04T11:28:13.205Z,3.90
2017-10-04T11:30:42.067Z,3.70
2017-10-04T11:33:10.940Z,4.20
2017-10-04T11:35:39.817Z,3.83
2017-10-04T11:38:08.691Z,3.60
2017-10-04T11:40:37.561Z,3.53
2017-10-04T11:43:06.428Z,3.40
2017-10-04T11:45:35.321Z,4.47
2017-10-04T11:48:04.185Z,3.20
2017-10-04T11:50:33.085Z,3.73
2017-10-04T11:53:01.932Z,3.23
2017-10-04T11:55:30.805Z,3.77
2017-10-04T11:57:59.665Z,4.00
2017-10-04T12:00:28.536Z,4.00
2017-10-04T12:02:57.404Z,4.07
2017-10-04T12:05:26.275Z,4.10
2017-10-04T12:07:55.139Z,4.70
2017-10-04T12:10:24.028Z,7.20
2017-10-04T12:12:52.889Z,5.20
2017-10-04T12:15:21.797Z,3.90
2017-10-04T12:17:50.648Z,4.73
2017-10-04T12:20:19.503Z,3.50
2017-10-04T12:22:48.381Z,4.10
2017-10-04T12:25:17.231Z,3.53
2017-10-04T12:27:46.141Z,3.73
2017-10-04T12:30:15.068Z,3.87
2017-10-04T12:32:43.943Z,4.00
2017-10-04T12:35:12.860Z,3.57
2017-10-04T12:37:41.732Z,3.20
2017-10-04T12:40:10.598Z,3.80
2017-10-04T12:42:39.484Z,3.30
2017-10-04T12:45:08.352Z,3.87
2017-10-04T12:47:37.243Z,4.20
2017-10-04T12:50:06.117Z,4.40
2017-10-04T12:52:34.992Z,4.27
2017-10-04T12:55:03.852Z,3.10
2017-10-04T12:57:32.748Z,3.47
2017-10-04T13:00:01.618Z,3.17
2017-10-04T13:02:30.476Z,5.53
2017-10-04T13:04:59.354Z,4.47
2017-10-04T13:07:28.223Z,3.60
2017-10-04T13:09:57.121Z,3.00
2017-10-04T13:12:25.987Z,3.40
2017-10-04T13:14:54.931Z,3.40
2017-10-04T13:17:23.785Z,3.60
2017-10-04T13:19:52.656Z,3.00
2017-10-04T13:22:21.518Z,4.27
2017-10-04T13:24:50.400Z,3.60
2017-10-04T13:27:19.260Z,4.07
2017-10-04T13:29:48.139Z,3.27
2017-10-04T13:32:17.007Z,3.83
2017-10-04T13:34:45.880Z,3.67
2017-10-04T13:37:14.740Z,3.70
2017-10-04T13:39:43.630Z,3.40
2017-10-04T13:42:12.501Z,2.97
2017-10-04T13:44:41.363Z,3.03
2017-10-04T13:47:10.240Z,3.63
2017-10-04T13:49:39.120Z,3.40
2017-10-04T13:52:08.001Z,3.90
2017-10-04T13:54:36.862Z,3.17
2017-10-04T13:57:05.736Z,3.03
2017-10-04T13:59:34.596Z,4.17
2017-10-04T14:02:03.476Z,3.77
2017-10-04T14:04:32.333Z,3.47
2017-10-04T14:07:01.208Z,3.77
2017-10-04T14:09:30.077Z,3.80
2017-10-04T14:11:58.951Z,3.33
2017-10-04T14:14:27.812Z,3.70
2017-10-04T14:16:56.692Z,3.10
2017-10-04T14:19:25.544Z,3.27
2017-10-04T14:21:54.424Z,4.27
2017-10-04T14:24:23.392Z,2.80
2017-10-04T14:26:52.250Z,2.90
2017-10-04T14:29:21.136Z,3.40
2017-10-04T14:31:50.000Z,3.50
2017-10-04T14:34:18.877Z,3.10
2017-10-04T14:36:47.821Z,3.10
2017-10-04T14:39:16.693Z,4.03
2017-10-04T14:41:45.560Z,3.13
2017-10-04T14:44:14.456Z,3.30
2017-10-04T14:46:43.315Z,3.07
2017-10-04T14:49:12.192Z,3.80
2017-10-04T14:51:41.065Z,3.73
2017-10-04T14:54:09.949Z,2.93
2017-10-04T14:56:38.817Z,2.30
2017-10-04T14:59:07.762Z,3.60
2017-10-04T15:01:36.633Z,2.77
2017-10-04T15:04:05.522Z,3.80
2017-10-04T15:06:34.386Z,4.10
2017-10-04T15:09:03.256Z,3.47
2017-10-04T15:11:32.133Z,2.80
2017-10-04T15:14:00.997Z,3.60
2017-10-04T15:16:29.880Z,3.30
2017-10-04T15:18:58.752Z,2.90
2017-10-04T15:21:27.623Z,3.00
2017-10-04T15:23:56.476Z,3.53
2017-10-04T15:26:25.356Z,3.00
2017-10-04T15:28:54.221Z,3.23
2017-10-04T15:31:23.096Z,3.70
2017-10-04T15:33:51.958Z,3.43
2017-10-04T15:36:20.838Z,4.23
2017-10-04T15:38:49.708Z,3.43
2017-10-04T15:41:18.593Z,5.23
2017-10-04T15:43:47.469Z,3.30
2017-10-04T15:46:16.488Z,3.10
2017-10-04T15:48:45.349Z,3.83
2017-10-04T15:51:14.239Z,3.90
2017-10-04T15:53:43.088Z,2.70
2017-10-04T15:56:11.999Z,4.27
2017-10-04T15:58:40.916Z,3.00
2017-10-04T16:01:09.937Z,3.50
2017-10-04T16:03:38.818Z,3.60
2017-10-04T16:06:07.673Z,3.73
2017-10-04T16:08:36.609Z,3.27
2017-10-04T16:11:05.490Z,3.03
2017-10-04T16:13:34.368Z,3.63
2017-10-04T16:16:03.229Z,4.27
2017-10-04T16:18:32.111Z,3.27
2017-10-04T16:21:00.977Z,4.30
2017-10-04T16:23:30.117Z,3.67
2017-10-04T16:25:59.253Z,3.50
2017-10-04T16:28:28.554Z,4.10
2017-10-04T16:30:57.692Z,2.90
2017-10-04T16:33:26.838Z,4.87
2017-10-04T16:35:55.740Z,4.20
2017-10-04T16:38:24.624Z,3.70
2017-10-04T16:40:53.480Z,3.80
2017-10-04T16:43:22.365Z,3.17
2017-10-04T16:45:51.242Z,3.50
2017-10-04T16:48:20.227Z,3.97
2017-10-04T16:50:49.092Z,3.83
2017-10-04T16:53:17.947Z,4.07
2017-10-04T16:55:46.852Z,4.33
2017-10-04T16:58:15.717Z,4.90
2017-10-04T17:00:44.605Z,3.37
2017-10-04T17:03:13.464Z,3.53
2017-10-04T17:05:42.341Z,4.03
2017-10-04T17:08:11.205Z,3.43
2017-10-04T17:10:40.079Z,4.67
2017-10-04T17:13:08.968Z,4.20
2017-10-04T17:15:37.856Z,4.37
2017-10-04T17:18:06.724Z,4.00
2017-10-04T17:20:35.602Z,4.20
2017-10-04T17:23:04.475Z,5.30
2017-10-04T17:25:33.369Z,4.33
2017-10-04T17:28:02.232Z,4.30
2017-10-04T17:30:31.105Z,4.00
2017-10-04T17:32:59.991Z,3.73
2017-10-04T17:35:28.845Z,4.00
2017-10-04T17:37:57.728Z,4.13
2017-10-04T17:40:26.584Z,3.43
2017-10-04T17:42:55.473Z,4.20
2017-10-04T17:45:24.328Z,4.10
2017-10-04T17:47:53.191Z,4.90
2017-10-04T17:50:22.044Z,4.20
2017-10-04T17:52:50.920Z,4.70
2017-10-04T17:55:19.772Z,4.13
2017-10-04T17:57:50.502Z,3.70
2017-10-04T18:00:19.356Z,3.83
2017-10-04T18:02:48.233Z,3.53
2017-10-04T18:05:17.088Z,4.20
2017-10-04T18:07:45.970Z,3.93
2017-10-04T18:10:14.832Z,3.93
2017-10-04T18:12:43.705Z,4.30
2017-10-04T18:15:12.580Z,4.97
2017-10-04T18:17:41.440Z,4.40
2017-10-04T18:20:10.315Z,4.00
2017-10-04T18:22:39.177Z,4.10
2017-10-04T18:25:08.053Z,4.83
2017-10-04T18:27:36.913Z,4.30
2017-10-04T18:30:05.801Z,4.37
2017-10-04T18:32:34.680Z,4.17
2017-10-04T18:35:03.549Z,4.30
2017-10-04T18:37:32.408Z,4.40
2017-10-04T18:40:01.473Z,4.10
2017-10-04T18:42:30.342Z,3.43
2017-10-04T18:44:59.216Z,3.80
2017-10-04T18:47:28.072Z,4.47
2017-10-04T18:49:56.953Z,4.90
2017-10-04T18:52:25.808Z,3.93
2017-10-04T18:54:54.690Z,4.50
2017-10-04T18:57:23.549Z,4.50
2017-10-04T18:59:52.429Z,4.70
2017-10-04T19:02:21.284Z,3.90
2017-10-04T19:04:50.167Z,4.47
2017-10-04T19:07:19.048Z,4.23
2017-10-04T19:09:48.726Z,5.90
2017-10-04T19:12:17.619Z,5.03
2017-10-04T19:14:46.689Z,5.03
2017-10-04T19:17:15.738Z,5.07
2017-10-04T19:19:44.660Z,4.60
2017-10-04T19:22:13.547Z,4.50
2017-10-04T19:24:42.428Z,5.13
2017-10-04T19:27:11.303Z,5.40
2017-10-04T19:29:40.168Z,4.43
2017-10-04T19:32:09.049Z,5.00
2017-10-04T19:34:37.911Z,5.03
2017-10-04T19:37:06.817Z,4.80
2017-10-04T19:39:35.684Z,4.60
2017-10-04T19:42:04.565Z,5.33
2017-10-04T19:44:33.442Z,5.10
2017-10-04T19:47:02.313Z,5.57
2017-10-04T19:49:31.171Z,5.07
2017-10-04T19:52:00.060Z,4.77
2017-10-04T19:54:28.919Z,6.20
2017-10-04T19:56:57.821Z,5.67
2017-10-04T19:59:26.728Z,5.27
2017-10-04T20:01:55.588Z,5.20
2017-10-04T20:04:24.463Z,5.63
2017-10-04T20:06:53.320Z,4.77
2017-10-04T20:09:22.204Z,5.73
2017-10-04T20:11:51.064Z,4.63
2017-10-04T20:14:20.034Z,5.10
2017-10-04T20:16:48.931Z,5.27
2017-10-04T20:19:17.805Z,4.93
2017-10-04T20:21:46.664Z,4.70
2017-10-04T20:24:15.547Z,4.93
2017-10-04T20:26:44.412Z,5.53
2017-10-04T20:29:13.290Z,5.10
2017-10-04T20:31:42.188Z,5.90
2017-10-04T20:34:11.119Z,5.97
2017-10-04T20:36:39.984Z,5.77
2017-10-04T20:39:08.871Z,6.37
2017-10-04T20:41:37.789Z,6.23
2017-10-04T20:44:06.842Z,5.30
2017-10-04T20:46:35.936Z,6.10
2017-10-04T20:49:05.008Z,6.70
2017-10-04T20:51:33.945Z,5.60
2017-10-04T20:54:02.843Z,6.87
2017-10-04T20:56:31.734Z,6.20
2017-10-04T20:59:00.604Z,5.70
2017-10-04T21:01:29.497Z,6.40
2017-10-04T21:03:58.433Z,6.17
2017-10-04T21:06:27.337Z,6.30
2017-10-04T21:08:56.211Z,6.10
2017-10-04T21:11:25.089Z,5.73
2017-10-04T21:13:53.952Z,6.27
2017-10-04T21:16:22.819Z,5.50
2017-10-04T21:18:51.693Z,6.70
2017-10-04T21:21:20.573Z,5.87
2017-10-04T21:23:49.444Z,5.93
2017-10-04T21:26:18.305Z,6.30
2017-10-04T21:28:47.183Z,5.37
2017-10-04T21:31:16.052Z,6.60
2017-10-04T21:33:44.936Z,5.70
2017-10-04T21:36:13.810Z,5.97
2017-10-04T21:38:42.778Z,5.67
2017-10-04T21:41:11.645Z,5.70
2017-10-04T21:43:40.524Z,6.20
2017-10-04T21:46:09.397Z,6.63
2017-10-04T21:48:38.284Z,5.83
2017-10-04T21:51:07.139Z,6.33
2017-10-04T21:53:36.016Z,7.10
2017-10-04T21:56:04.879Z,6.07
2017-10-04T21:58:33.776Z,6.47
2017-10-04T22:01:02.700Z,6.00
2017-10-04T22:03:31.562Z,6.07
2017-10-04T22:05:59.331Z,6.07
2017-10-04T22:08:28.199Z,6.00
2017-10-04T22:10:57.084Z,5.50
2017-10-04T22:13:25.955Z,6.40
2017-10-04T22:15:54.837Z,7.00
2017-10-04T22:18:23.697Z,6.30
2017-10-04T22:20:52.574Z,6.17
2017-10-04T22:23:21.441Z,6.80
2017-10-04T22:25:50.337Z,6.40
2017-10-04T22:28:19.196Z,5.93
2017-10-04T22:30:48.064Z,6.30
2017-10-04T22:33:16.924Z,6.90
2017-10-04T22:35:45.794Z,6.10
2017-10-04T22:38:14.661Z,6.10
2017-10-04T22:40:43.536Z,5.40
2017-10-04T22:43:12.399Z,5.47
2017-10-04T22:45:41.297Z,5.50
2017-10-04T22:48:10.155Z,5.80
2017-10-04T22:50:39.021Z,6.20
2017-10-04T22:53:07.903Z,6.30
2017-10-04T22:55:36.886Z,5.20
2017-10-04T22:58:05.759Z,5.43
2017-10-04T23:00:34.615Z,6.53
2017-10-04T23:03:03.493Z,5.27
2017-10-04T23:05:32.364Z,5.47
2017-10-04T23:08:01.235Z,6.27
2017-10-04T23:10:30.100Z,5.50
2017-10-04T23:12:58.971Z,5.13
2017-10-04T23:15:27.836Z,5.70
2017-10-04T23:17:56.736Z,5.10
2017-10-04T23:20:25.596Z,5.63
2017-10-04T23:22:54.487Z,6.63
2017-10-04T23:25:23.357Z,5.47
2017-10-04T23:27:52.252Z,5.47
2017-10-04T23:30:21.112Z,5.57
2017-10-04T23:32:49.976Z,5.57
2017-10-04T23:35:18.848Z,5.67
2017-10-04T23:37:47.711Z,5.43
2017-10-04T23:40:16.594Z,4.47
2017-10-04T23:42:45.464Z,6.10
2017-10-04T23:45:14.341Z,5.13
2017-10-04T23:47:43.288Z,4.70
2017-10-04T23:50:12.184Z,4.20
2017-10-04T23:52:41.049Z,4.83
2017-10-04T23:55:09.940Z,5.80
2017-10-04T23:57:38.811Z,5.53
